Time;durP1;ratioP1;P1;durP2;ratioP2;P2;SDS_P1;SDS_P2;PMS_P1;PMS_P2;Temp;Humidity;BMP_temperature;BMP_pressure;BME280_temperature;BME280_humidity;BME280_pressure;Samples;Min_cycle;Max_cycle;Signal;HPM_P1;HPM_P2
2022/05/19 00:01:29;;;;;;;;;;;;;;;22.96;68.79;98077.51;610248;232;38532;-76
2022/05/19 00:03:56;;;;;;;;;;;;;;;22.95;69.05;98076.67;612026;231;65365;-75
2022/05/19 00:06:24;;;;;;;;;;;;;;;22.94;68.88;98069.67;611343;232;67032;-75
2022/05/19 00:08:51;;;;;;;;;;;;;;;22.93;69.05;98077.99;611283;232;67375;-75
2022/05/19 00:11:20;;;;;;;;;;;;;;;22.93;69.06;98073.44;611298;232;65381;-75
2022/05/19 00:13:48;;;;;;;;;;;;;;;22.94;69.14;98074.23;611276;232;67022;-75
2022/05/19 00:16:15;;;;;;;;;;;;;;;22.94;69.19;98066.20;616369;230;66988;-75
2022/05/19 00:18:43;;;;;;;;;;;;;;;22.94;68.99;98068.88;616521;230;65446;-75
2022/05/19 00:21:10;;;;;;;;;;;;;;;22.94;68.92;98068.88;616507;230;67135;-75
2022/05/19 00:23:38;;;;;;;;;;;;;;;22.94;68.99;98066.20;616469;230;66919;-75
2022/05/19 00:26:05;;;;;;;;;;;;;;;22.94;69.33;98079.59;616498;230;65105;-75
2022/05/19 00:28:33;;;;;;;;;;;;;;;22.93;68.78;98073.44;616476;230;66717;-75
2022/05/19 00:31:01;;;;;;;;;;;;;;;22.94;69.42;98079.59;616442;230;64599;-75
2022/05/19 00:33:28;;;;;;;;;;;;;;;22.93;68.95;98069.95;616487;230;65474;-75
2022/05/19 00:35:56;;;;;;;;;;;;;;;22.93;68.73;98078.80;616476;230;67302;-75
2022/05/19 00:38:23;;;;;;;;;;;;;;;22.93;69.44;98083.36;616483;230;66841;-75
2022/05/19 00:40:54;;;;;;;;;;;;;;;22.94;69.07;98074.23;616475;230;62993;-75
2022/05/19 00:43:32;;;;;;;;;;;;;;;22.92;68.80;98077.19;616421;230;67210;-75
2022/05/19 00:46:01;;;;;;;;;;;;;;;22.92;69.07;98079.07;616482;230;66940;-75
2022/05/19 00:48:30;;;;;;;;;;;;;;;22.93;69.33;98083.36;616356;230;65204;-75
2022/05/19 00:50:59;;;;;;;;;;;;;;;22.93;69.91;98083.36;616375;230;64935;-75
2022/05/19 00:53:28;;;;;;;;;;;;;;;22.92;69.15;98081.75;616451;230;64710;-75
2022/05/19 00:55:58;;;;;;;;;;;;;;;22.92;69.16;98087.11;616360;230;63007;-75
2022/05/19 00:58:28;;;;;;;;;;;;;;;22.92;68.81;98081.75;616416;230;67196;-75
2022/05/19 01:00:55;;;;;;;;;;;;;;;22.92;69.33;98084.44;616519;230;64838;-75
2022/05/19 01:03:24;;;;;;;;;;;;;;;22.90;69.64;98087.36;613510;230;64179;-75
2022/05/19 01:05:53;;;;;;;;;;;;;;;22.90;69.90;98078.52;611403;232;65827;-75
2022/05/19 01:08:37;;;;;;;;;;;;;;;22.89;69.00;98080.39;610595;232;64807;-75
2022/05/19 01:11:06;;;;;;;;;;;;;;;22.89;69.12;98080.39;600300;236;65131;-75
2022/05/19 01:13:34;;;;;;;;;;;;;;;22.90;69.09;98086.55;606993;231;64876;-75
2022/05/19 01:16:04;;;;;;;;;;;;;;;22.89;69.18;98082.23;610167;232;66663;-75
2022/05/19 01:18:32;;;;;;;;;;;;;;;22.88;69.03;98088.68;610116;232;63156;-76
2022/05/19 01:20:59;;;;;;;;;;;;;;;22.87;69.53;98085.20;610083;232;68015;-75
2022/05/19 01:23:31;;;;;;;;;;;;;;;22.88;69.28;98089.48;610100;232;67260;-73
2022/05/19 01:26:00;;;;;;;;;;;;;;;22.88;69.06;98083.31;610103;232;65444;-74
2022/05/19 01:28:28;;;;;;;;;;;;;;;22.88;69.61;98092.16;609971;231;67030;-74
2022/05/19 01:30:56;;;;;;;;;;;;;;;22.88;69.20;98088.68;610115;232;64901;-74
2022/05/19 01:33:25;;;;;;;;;;;;;;;22.87;69.45;98085.20;610047;232;65873;-76
2022/05/19 01:35:52;;;;;;;;;;;;;;;22.86;69.74;98080.87;610103;232;67076;-76
2022/05/19 01:38:31;;;;;;;;;;;;;;;22.87;69.57;98082.52;610136;232;66597;-76
2022/05/19 01:41:14;;;;;;;;;;;;;;;22.86;69.45;98078.20;609986;231;47457;-76
2022/05/19 01:43:42;;;;;;;;;;;;;;;22.85;68.65;98084.63;610058;230;64578;-75
2022/05/19 01:46:14;;;;;;;;;;;;;;;22.86;69.60;98077.40;609939;231;64535;-76
2022/05/19 01:48:46;;;;;;;;;;;;;;;22.85;69.09;98083.83;609987;231;65245;-75
2022/05/19 01:51:18;;;;;;;;;;;;;;;22.85;68.71;98087.31;610111;232;67022;-75
2022/05/19 01:54:03;;;;;;;;;;;;;;;22.85;69.89;98083.83;610051;231;67088;-76
2022/05/19 01:56:39;;;;;;;;;;;;;;;22.85;69.60;98087.31;609923;232;65388;-76
2022/05/19 01:59:14;;;;;;;;;;;;;;;22.85;69.52;98087.31;610185;232;66796;-78
2022/05/19 02:01:43;;;;;;;;;;;;;;;22.83;68.89;98090.27;610083;232;66791;-78
2022/05/19 02:04:16;;;;;;;;;;;;;;;22.83;68.92;98094.80;612083;231;62712;-77
2022/05/19 02:06:43;;;;;;;;;;;;;;;22.83;69.35;98092.95;610669;232;64942;-77
2022/05/19 02:09:12;;;;;;;;;;;;;;;22.83;69.64;98094.80;616192;230;64777;-77
2022/05/19 02:11:45;;;;;;;;;;;;;;;22.82;69.51;98094.00;616417;230;65032;-77
2022/05/19 02:14:14;;;;;;;;;;;;;;;22.82;69.42;98096.67;616464;230;67071;-78
2022/05/19 02:16:42;;;;;;;;;;;;;;;22.82;69.02;98096.67;616447;230;64595;-78
2022/05/19 02:19:11;;;;;;;;;;;;;;;22.82;69.54;98099.36;616465;230;65487;-77
2022/05/19 02:21:40;;;;;;;;;;;;;;;22.82;69.78;98099.36;616397;230;67002;-77
2022/05/19 02:24:09;;;;;;;;;;;;;;;22.81;68.62;98103.11;616530;230;64570;-77
2022/05/19 02:26:38;;;;;;;;;;;;;;;22.81;69.03;98100.43;616482;230;65388;-77
2022/05/19 02:29:07;;;;;;;;;;;;;;;22.82;69.56;98107.40;616513;230;64859;-77
2022/05/19 02:31:34;;;;;;;;;;;;;;;22.81;69.22;98105.80;616491;230;63999;-77
2022/05/19 02:34:02;;;;;;;;;;;;;;;22.81;69.62;98097.75;616463;230;63073;-78
2022/05/19 02:36:29;;;;;;;;;;;;;;;22.81;68.82;98103.11;616491;230;67038;-77
2022/05/19 02:38:56;;;;;;;;;;;;;;;22.80;69.10;98101.48;616503;230;67155;-77
2022/05/19 02:41:24;;;;;;;;;;;;;;;22.81;69.57;98103.11;616499;230;62616;-77
2022/05/19 02:43:52;;;;;;;;;;;;;;;22.79;68.89;98107.91;616508;230;64844;-77
2022/05/19 02:46:19;;;;;;;;;;;;;;;22.80;69.07;98106.84;616421;230;64844;-77
2022/05/19 02:48:47;;;;;;;;;;;;;;;22.80;69.26;98103.35;616489;229;63016;-77
2022/05/19 02:51:14;;;;;;;;;;;;;;;22.80;68.93;98106.84;616527;230;64830;-77
2022/05/19 02:53:42;;;;;;;;;;;;;;;22.79;68.64;98109.79;616495;230;66899;-77
2022/05/19 02:56:09;;;;;;;;;;;;;;;22.78;68.74;98106.31;616509;230;65360;-77
2022/05/19 02:58:37;;;;;;;;;;;;;;;22.80;69.92;98111.39;616489;229;66796;-77
2022/05/19 03:01:06;;;;;;;;;;;;;;;22.79;69.48;98110.59;616458;230;64607;-77
2022/05/19 03:03:33;;;;;;;;;;;;;;;22.78;69.68;98117.03;613158;230;63181;-77
2022/05/19 03:06:01;;;;;;;;;;;;;;;22.77;69.16;98107.35;611438;232;65063;-78
2022/05/19 03:08:28;;;;;;;;;;;;;;;22.78;68.86;98119.70;611101;232;64780;-77
2022/05/19 03:10:55;;;;;;;;;;;;;;;22.78;69.01;98117.03;610123;232;63016;-77
2022/05/19 03:13:23;;;;;;;;;;;;;;;22.79;69.55;98120.52;610080;232;66935;-77
2022/05/19 03:15:51;;;;;;;;;;;;;;;22.77;69.33;98120.75;610171;230;64819;-77
2022/05/19 03:18:19;;;;;;;;;;;;;;;22.76;69.24;98119.15;610128;232;63849;-77
2022/05/19 03:20:46;;;;;;;;;;;;;;;22.77;69.43;98130.67;610129;232;66826;-77
2022/05/19 03:23:14;;;;;;;;;;;;;;;22.75;69.05;98125.58;610141;232;64838;-77
2022/05/19 03:25:41;;;;;;;;;;;;;;;22.77;69.96;98127.98;610098;232;63224;-77
2022/05/19 03:28:10;;;;;;;;;;;;;;;22.75;68.92;98124.75;610115;232;64795;-77
2022/05/19 03:30:38;;;;;;;;;;;;;;;22.77;69.68;98127.98;610136;230;64966;-77
2022/05/19 03:33:07;;;;;;;;;;;;;;;22.76;69.39;98131.74;610036;232;41714;-77
2022/05/19 03:35:36;;;;;;;;;;;;;;;22.76;69.67;98132.55;610116;232;67256;-77
2022/05/19 03:38:04;;;;;;;;;;;;;;;22.75;69.11;98130.11;610139;232;66871;-78
2022/05/19 03:40:32;;;;;;;;;;;;;;;22.75;69.61;98130.94;610076;232;65157;-77
2022/05/19 03:42:59;;;;;;;;;;;;;;;22.75;69.52;98135.47;610185;232;67973;-77
2022/05/19 03:45:27;;;;;;;;;;;;;;;22.75;69.90;98135.47;610106;232;64435;-77
2022/05/19 03:47:54;;;;;;;;;;;;;;;22.74;69.39;98133.86;610137;232;65124;-77
2022/05/19 03:50:22;;;;;;;;;;;;;;;22.73;69.51;98135.73;610096;232;67482;-77
2022/05/19 03:52:51;;;;;;;;;;;;;;;22.74;69.25;98139.22;610086;232;67689;-78
2022/05/19 03:55:18;;;;;;;;;;;;;;;22.75;70.28;98140.83;610140;230;65658;-77
2022/05/19 03:57:46;;;;;;;;;;;;;;;22.73;69.02;98143.78;610126;232;67054;-78
2022/05/19 04:00:14;;;;;;;;;;;;;;;22.73;69.36;98143.78;610091;232;66867;-77
2022/05/19 04:02:42;;;;;;;;;;;;;;;22.73;69.21;98153.70;611208;230;64889;-77
2022/05/19 04:05:10;;;;;;;;;;;;;;;22.72;68.62;98155.55;616314;229;64617;-77
2022/05/19 04:07:37;;;;;;;;;;;;;;;22.73;69.61;98159.05;616481;230;66775;-77
2022/05/19 04:10:05;;;;;;;;;;;;;;;22.71;69.21;98161.98;616507;230;65453;-77
2022/05/19 04:12:33;;;;;;;;;;;;;;;22.72;69.02;98160.09;616485;230;66746;-77
2022/05/19 04:15:02;;;;;;;;;;;;;;;22.72;68.99;98155.55;616441;230;66858;-77
2022/05/19 04:17:33;;;;;;;;;;;;;;;22.71;69.13;98159.30;616480;230;65392;-77
2022/05/19 04:20:01;;;;;;;;;;;;;;;22.72;70.08;98160.09;616485;229;67630;-77
2022/05/19 04:22:29;;;;;;;;;;;;;;;22.70;69.08;98165.73;616451;230;64680;-77
2022/05/19 04:24:56;;;;;;;;;;;;;;;22.70;68.91;98171.09;616480;230;63220;-77
2022/05/19 04:27:24;;;;;;;;;;;;;;;22.70;69.74;98165.73;616460;230;67034;-77
2022/05/19 04:29:51;;;;;;;;;;;;;;;22.70;70.30;98165.73;616455;230;67060;-77
2022/05/19 04:32:19;;;;;;;;;;;;;;;22.69;69.20;98169.45;616507;230;65474;-77
2022/05/19 04:34:48;;;;;;;;;;;;;;;22.70;69.75;98160.38;616538;230;43635;-77
2022/05/19 04:37:15;;;;;;;;;;;;;;;22.71;69.59;98163.85;616393;230;66887;-77
2022/05/19 04:39:43;;;;;;;;;;;;;;;22.69;69.33;98164.09;616248;230;65449;-77
2022/05/19 04:42:11;;;;;;;;;;;;;;;22.69;69.25;98160.61;616349;229;67253;-77
2022/05/19 04:44:39;;;;;;;;;;;;;;;22.68;68.95;98165.16;616448;230;67053;-77
2022/05/19 04:47:07;;;;;;;;;;;;;;;22.69;69.46;98161.41;615553;230;65641;-77
2022/05/19 04:49:34;;;;;;;;;;;;;;;22.68;69.83;98150.97;616477;229;67364;-77
2022/05/19 04:52:02;;;;;;;;;;;;;;;22.67;69.71;98163.56;616476;230;66983;-77
2022/05/19 04:54:30;;;;;;;;;;;;;;;22.67;69.35;98155.52;616442;230;65283;-77
2022/05/19 04:56:57;;;;;;;;;;;;;;;22.67;69.61;98158.20;616404;230;68134;-77
2022/05/19 04:59:25;;;;;;;;;;;;;;;22.68;69.97;98156.33;616496;230;66665;-77
2022/05/19 05:01:52;;;;;;;;;;;;;;;22.67;69.77;98160.88;616445;230;63105;-77
2022/05/19 05:04:19;;;;;;;;;;;;;;;22.67;69.63;98155.52;611766;230;64850;-77
2022/05/19 05:06:47;;;;;;;;;;;;;;;22.66;69.55;98156.56;610079;230;64991;-77
2022/05/19 05:09:14;;;;;;;;;;;;;;;22.67;69.47;98149.33;609984;232;63003;-74
2022/05/19 05:11:42;;;;;;;;;;;;;;;22.65;69.12;98152.28;610154;232;64820;-75
2022/05/19 05:14:10;;;;;;;;;;;;;;;22.66;69.04;98148.53;609821;232;64884;-74
2022/05/19 05:16:37;;;;;;;;;;;;;;;22.65;69.38;98146.92;609665;232;62052;-74
2022/05/19 05:19:05;;;;;;;;;;;;;;;22.65;69.51;98146.92;610095;232;67233;-74
2022/05/19 05:21:33;;;;;;;;;;;;;;;22.65;69.90;98146.92;610105;232;66784;-74
2022/05/19 05:24:00;;;;;;;;;;;;;;;22.64;68.96;98150.64;610175;232;65406;-74
2022/05/19 05:26:28;;;;;;;;;;;;;;;22.64;69.75;98149.84;610110;232;64500;-75
2022/05/19 05:28:56;;;;;;;;;;;;;;;22.64;69.67;98156.00;610121;232;64834;-75
2022/05/19 05:31:24;;;;;;;;;;;;;;;22.64;69.51;98156.00;610089;232;65181;-74
2022/05/19 05:33:51;;;;;;;;;;;;;;;22.64;69.69;98149.84;604731;232;67328;-75
2022/05/19 05:36:19;;;;;;;;;;;;;;;22.62;69.50;98152.80;610151;232;64788;-74
2022/05/19 05:38:48;;;;;;;;;;;;;;;22.64;70.06;98149.84;610123;232;62985;-74
2022/05/19 05:41:16;;;;;;;;;;;;;;;22.63;69.71;98154.40;610058;232;67032;-74
2022/05/19 05:43:45;;;;;;;;;;;;;;;22.63;69.68;98156.28;610187;231;44151;-72
2022/05/19 05:46:17;;;;;;;;;;;;;;;22.62;69.97;98158.16;610091;232;63001;-72
2022/05/19 05:48:45;;;;;;;;;;;;;;;22.62;69.74;98160.83;610163;232;64470;-73
2022/05/19 05:51:13;;;;;;;;;;;;;;;22.62;70.10;98158.16;610176;232;66632;-73
2022/05/19 05:53:41;;;;;;;;;;;;;;;22.62;69.98;98166.19;610100;232;65359;-73
2022/05/19 05:56:10;;;;;;;;;;;;;;;22.62;70.06;98163.51;610068;230;66738;-73
2022/05/19 05:58:38;;;;;;;;;;;;;;;22.61;69.89;98161.88;610045;232;64431;-74
2022/05/19 06:01:08;;;;;;;;;;;;;;;22.59;69.17;98153.30;610215;231;43998;-76
2022/05/19 06:03:36;;;;;;;;;;;;;;;22.60;69.37;98152.23;612289;229;66889;-74
2022/05/19 06:06:04;;;;;;;;;;;;;;;22.60;69.20;98158.39;610695;232;66758;-73
2022/05/19 06:08:33;;;;;;;;;;;;;;;22.59;69.35;98154.11;610655;232;62053;-72
2022/05/19 06:11:01;;;;;;;;;;;;;;;22.59;68.36;98158.66;610606;232;64317;-72
2022/05/19 06:13:29;;;;;;;;;;;;;;;22.60;69.14;98154.91;614514;230;66670;-72
2022/05/19 06:15:57;;;;;;;;;;;;;;;22.59;68.68;98159.47;616461;230;64081;-72
2022/05/19 06:18:29;;;;;;;;;;;;;;;22.60;68.85;98165.63;614917;229;67073;-72
2022/05/19 06:20:54;;;;;;;;;;;;;;;22.61;69.62;98161.88;614934;230;67176;-71
2022/05/19 06:23:23;;;;;;;;;;;;;;;22.61;69.29;98165.36;615032;230;63831;-73
2022/05/19 06:25:50;;;;;;;;;;;;;;;22.61;68.89;98164.55;614887;230;67138;-73
2022/05/19 06:28:18;;;;;;;;;;;;;;;22.62;69.16;98168.87;614983;230;66895;-73
2022/05/19 06:30:47;;;;;;;;;;;;;;;22.62;68.28;98166.19;615111;230;63070;-73
2022/05/19 06:33:17;;;;;;;;;;;;;;;22.63;68.65;98165.12;615065;230;64852;-73
2022/05/19 06:35:44;;;;;;;;;;;;;;;22.62;68.18;98171.55;615056;230;64924;-73
2022/05/19 06:38:11;;;;;;;;;;;;;;;22.63;68.66;98166.99;615130;230;65414;-73
2022/05/19 06:40:39;;;;;;;;;;;;;;;22.63;68.06;98164.31;615137;230;66904;-73
2022/05/19 06:43:08;;;;;;;;;;;;;;;22.63;68.58;98170.48;615211;230;64783;-72
2022/05/19 06:45:36;;;;;;;;;;;;;;;22.63;68.13;98173.16;614921;230;65136;-73
2022/05/19 06:48:04;;;;;;;;;;;;;;;22.63;68.99;98166.99;615019;230;67333;-74
2022/05/19 06:50:31;;;;;;;;;;;;;;;22.63;68.62;98175.83;615144;230;66981;-73
2022/05/19 06:53:03;;;;;;;;;;;;;;;22.62;68.58;98174.23;615075;230;65425;-75
2022/05/19 06:55:32;;;;;;;;;;;;;;;22.61;67.61;98162.67;615114;230;67122;-73
2022/05/19 06:57:59;;;;;;;;;;;;;;;22.60;67.57;98162.95;615161;230;67070;-73
2022/05/19 07:00:27;;;;;;;;;;;;;;;22.62;67.60;98163.51;615110;230;65162;-73
2022/05/19 07:02:57;;;;;;;;;;;;;;;22.60;67.53;98163.75;615174;230;66769;-76
2022/05/19 07:05:26;;;;;;;;;;;;;;;22.60;66.50;98165.63;615192;230;66802;-71
2022/05/19 07:07:53;;;;;;;;;;;;;;;22.59;64.52;98167.50;615090;230;65528;-71
2022/05/19 07:10:22;;;;;;;;;;;;;;;22.60;65.26;98168.30;615226;230;66869;-74
2022/05/19 07:12:50;;;;;;;;;;;;;;;22.59;65.21;98175.54;615140;230;66667;-74
2022/05/19 07:15:19;;;;;;;;;;;;;;;22.59;64.06;98172.06;615126;230;65582;-75
2022/05/19 07:17:47;;;;;;;;;;;;;;;22.58;64.51;98171.23;615030;230;67025;-73
2022/05/19 07:23:02;;;;;;;;;;;;;;;22.58;64.64;98176.58;615177;230;65462;-70
2022/05/19 07:25:31;;;;;;;;;;;;;;;22.59;65.64;98186.25;615208;230;64165;-71
2022/05/19 07:27:58;;;;;;;;;;;;;;;22.59;65.38;98177.42;615137;230;66143;-70
2022/05/19 07:30:26;;;;;;;;;;;;;;;22.58;65.36;98184.62;615170;230;63026;-71
2022/05/19 07:32:54;;;;;;;;;;;;;;;22.57;64.52;98180.33;615172;230;64596;-70
2022/05/19 07:35:24;;;;;;;;;;;;;;;22.57;64.77;98187.57;615102;230;67061;-73
2022/05/19 07:37:52;;;;;;;;;;;;;;;22.56;64.85;98186.77;615108;230;63197;-74
2022/05/19 07:40:20;;;;;;;;;;;;;;;22.58;65.25;98189.98;615185;230;66768;-70
2022/05/19 07:42:47;;;;;;;;;;;;;;;22.58;65.48;98195.34;615097;230;66730;-70
2022/05/19 07:45:16;;;;;;;;;;;;;;;22.56;64.48;98185.94;615165;230;65089;-70
2022/05/19 07:47:44;;;;;;;;;;;;;;;22.57;65.74;98184.89;615176;230;64538;-73
2022/05/19 07:50:13;;;;;;;;;;;;;;;22.57;65.52;98179.53;615152;230;64194;-73
2022/05/19 07:52:40;;;;;;;;;;;;;;;22.55;65.67;98177.09;615189;230;63095;-73
2022/05/19 07:55:09;;;;;;;;;;;;;;;22.53;63.22;98171.17;615175;230;64324;-74
2022/05/19 07:57:38;;;;;;;;;;;;;;;22.53;63.66;98181.88;615054;230;66955;-73
2022/05/19 08:00:06;;;;;;;;;;;;;;;22.54;63.49;98185.40;615082;230;63042;-72
2022/05/19 08:02:35;;;;;;;;;;;;;;;22.53;63.33;98181.88;615125;230;44246;-63
2022/05/19 08:05:04;;;;;;;;;;;;;;;22.53;62.58;98186.44;615092;230;66854;-63
2022/05/19 08:07:31;;;;;;;;;;;;;;;22.54;63.47;98180.05;615161;230;65597;-70
2022/05/19 08:15:35;;;;;;;;;;;;;;;22.53;61.53;98181.08;615087;230;65488;-78
2022/05/19 08:18:05;;;;;;;;;;;;;;;22.53;61.43;98181.88;615140;230;64804;-77
2022/05/19 08:20:33;;;;;;;;;;;;;;;22.54;62.24;98185.40;615056;230;67610;-78
2022/05/19 08:23:01;;;;;;;;;;;;;;;22.53;61.93;98176.53;615166;230;65399;-73
2022/05/19 08:25:29;;;;;;;;;;;;;;;22.53;61.95;98179.20;615118;230;66737;-74
2022/05/19 08:27:57;;;;;;;;;;;;;;;22.53;61.88;98170.37;615106;230;64566;-73
2022/05/19 08:30:25;;;;;;;;;;;;;;;22.55;62.41;98173.61;615174;230;63015;-72
2022/05/19 08:32:55;;;;;;;;;;;;;;;22.55;61.17;98173.61;615137;230;64343;-76
2022/05/19 08:35:24;;;;;;;;;;;;;;;22.55;60.80;98174.41;615176;230;66776;-72
2022/05/19 08:37:52;;;;;;;;;;;;;;;22.56;61.38;98168.02;615122;230;62983;-75
2022/05/19 08:40:20;;;;;;;;;;;;;;;22.59;60.69;98169.38;615083;230;66746;-71
2022/05/19 08:42:51;;;;;;;;;;;;;;;22.60;61.17;98170.98;615204;230;66382;-74
2022/05/19 08:45:20;;;;;;;;;;;;;;;22.59;60.54;98175.54;615176;230;65058;-72
2022/05/19 08:47:52;;;;;;;;;;;;;;;22.61;59.78;98175.27;614029;230;64605;-75
2022/05/19 08:50:21;;;;;;;;;;;;;;;22.60;60.22;98170.98;615001;230;64908;-72
2022/05/19 08:52:50;;;;;;;;;;;;;;;22.60;61.95;98168.30;615097;230;62996;-68
2022/05/19 08:55:18;;;;;;;;;;;;;;;22.61;61.67;98161.88;615158;230;66715;-70
2022/05/19 08:57:56;;;;;;;;;;;;;;;22.62;60.64;98168.87;615076;230;66759;-70
2022/05/19 09:00:34;;;;;;;;;;;;;;;22.63;60.68;98158.95;614906;230;63088;-74
2022/05/19 09:03:16;;;;;;;;;;;;;;;22.63;60.07;98165.12;614949;230;66985;-74
2022/05/19 09:05:58;;;;;;;;;;;;;;;22.65;59.90;98163.00;614833;230;64803;-74
2022/05/19 09:08:30;;;;;;;;;;;;;;;22.66;59.68;98155.77;615099;230;63237;-74
2022/05/19 09:11:00;;;;;;;;;;;;;;;22.65;58.65;98157.64;615111;230;66599;-75
2022/05/19 09:13:32;;;;;;;;;;;;;;;22.68;60.17;98161.69;615143;230;66826;-71
2022/05/19 09:16:02;;;;;;;;;;;;;;;22.68;58.74;98151.77;615011;230;65360;-70
2022/05/19 09:18:34;;;;;;;;;;;;;;;22.69;59.34;98153.38;614915;230;66563;-72
2022/05/19 09:21:03;;;;;;;;;;;;;;;22.70;59.86;98152.33;615166;230;64554;-73
2022/05/19 09:23:30;;;;;;;;;;;;;;;22.71;58.37;98151.26;615044;230;65136;-73
2022/05/19 09:26:16;;;;;;;;;;;;;;;22.73;58.42;98149.14;615127;230;66636;-72
2022/05/19 09:28:45;;;;;;;;;;;;;;;22.74;58.22;98139.22;615074;230;66668;-72
2022/05/19 09:31:13;;;;;;;;;;;;;;;22.74;59.44;98144.58;615085;230;65087;-72
2022/05/19 09:33:44;;;;;;;;;;;;;;;22.74;58.02;98140.02;615135;230;64581;-72
2022/05/19 09:36:12;;;;;;;;;;;;;;;22.76;58.67;98143.27;615136;230;64096;-72
2022/05/19 09:38:42;;;;;;;;;;;;;;;22.77;57.98;98147.55;615126;230;63118;-71
2022/05/19 09:41:11;;;;;;;;;;;;;;;22.76;59.02;98140.59;613809;229;64666;-74
2022/05/19 09:43:38;;;;;;;;;;;;;;;22.78;58.16;98135.79;614643;230;64610;-72
2022/05/19 09:46:07;;;;;;;;;;;;;;;22.78;58.01;98141.14;614872;230;62978;-72
2022/05/19 09:48:38;;;;;;;;;;;;;;;22.79;57.37;98133.91;614824;230;66821;-71
2022/05/19 09:51:07;;;;;;;;;;;;;;;22.80;58.34;98132.84;615006;230;66469;-72
2022/05/19 09:53:42;;;;;;;;;;;;;;;22.81;58.46;98126.43;615031;230;65493;-72
2022/05/19 09:56:11;;;;;;;;;;;;;;;22.80;58.46;98125.59;615194;230;66861;-72
2022/05/19 09:58:40;;;;;;;;;;;;;;;22.80;57.76;98128.28;615135;230;66097;-72
2022/05/19 10:01:09;;;;;;;;;;;;;;;22.82;58.00;98123.48;615198;230;62935;-73
2022/05/19 10:03:40;;;;;;;;;;;;;;;22.82;58.18;98126.16;614890;230;64323;-75
2022/05/19 10:06:09;;;;;;;;;;;;;;;22.82;57.78;98126.16;615015;230;67530;-72
2022/05/19 10:08:39;;;;;;;;;;;;;;;22.84;57.71;98120.55;615198;230;62982;-72
2022/05/19 10:11:17;;;;;;;;;;;;;;;22.84;58.14;98120.55;615153;230;64555;-78
2022/05/19 10:13:51;;;;;;;;;;;;;;;22.86;57.13;98117.60;615117;230;67879;-73
2022/05/19 10:16:39;;;;;;;;;;;;;;;22.86;58.01;98113.04;615177;230;50052;-73
2022/05/19 10:19:20;;;;;;;;;;;;;;;22.86;59.35;98113.04;615127;230;66717;-71
2022/05/19 10:22:00;;;;;;;;;;;;;;;22.87;57.50;98105.84;614857;230;64634;-72
2022/05/19 10:24:41;;;;;;;;;;;;;;;22.86;57.27;98109.56;615093;230;65904;-72
2022/05/19 10:32:56;;;;;;;;;;;;;;;22.88;58.05;98118.97;615032;230;63274;-72
2022/05/19 10:35:27;;;;;;;;;;;;;;;22.87;57.89;98119.23;615112;230;64684;-71
2022/05/19 10:38:13;;;;;;;;;;;;;;;22.87;57.81;98109.31;615180;230;66629;-71
2022/05/19 10:40:54;;;;;;;;;;;;;;;22.88;57.31;98104.77;615166;230;65240;-73
2022/05/19 10:43:27;;;;;;;;;;;;;;;22.89;57.38;98106.36;614821;230;64604;-70
2022/05/19 10:45:56;;;;;;;;;;;;;;;22.87;55.44;98095.91;614896;230;67532;-71
2022/05/19 10:48:31;;;;;;;;;;;;;;;22.89;56.90;98098.32;614970;230;65413;-70
2022/05/19 10:51:06;;;;;;;;;;;;;;;22.90;57.48;98105.31;612069;230;64528;-70
2022/05/19 10:53:52;;;;;;;;;;;;;;;22.92;57.58;98108.56;615029;230;66741;-70
2022/05/19 10:56:25;;;;;;;;;;;;;;;22.92;58.51;98095.95;615161;230;65392;-69
2022/05/19 10:59:00;;;;;;;;;;;;;;;22.92;59.38;98095.95;615194;230;66924;-69
2022/05/19 11:01:35;;;;;;;;;;;;;;;22.94;58.70;98101.05;605997;230;66651;-72
2022/05/19 11:04:20;;;;;;;;;;;;;;;22.95;59.41;98089.27;614912;230;65387;-73
2022/05/19 11:07:04;;;;;;;;;;;;;;;22.95;59.43;98092.76;615109;230;66723;-70
2022/05/19 11:09:34;;;;;;;;;;;;;;;22.96;59.63;98093.59;596989;235;64652;-72
2022/05/19 11:12:03;;;;;;;;;;;;;;;22.96;60.52;98082.87;609419;229;65240;-72
2022/05/19 11:14:32;;;;;;;;;;;;;;;22.96;60.73;98074.83;603697;230;66771;-72
2022/05/19 11:17:04;;;;;;;;;;;;;;;22.96;59.63;98077.51;615107;230;66664;-72
2022/05/19 11:19:33;;;;;;;;;;;;;;;22.96;59.00;98062.22;614321;230;65177;-71
2022/05/19 11:22:08;;;;;;;;;;;;;;;22.97;59.43;98060.34;615030;230;67994;-71
2022/05/19 11:26:23;;;;;;;;;;;;;;;22.98;59.23;98061.98;614999;230;67186;-72
2022/05/19 11:27:08;;;;;;;;;;;;;;;22.98;59.83;98070.82;615229;230;65113;-73
2022/05/19 11:29:49;;;;;;;;;;;;;;;22.99;59.34;98068.94;614342;230;64925;-74
2022/05/19 11:32:19;;;;;;;;;;;;;;;22.98;58.13;98065.46;615192;230;66896;-75
2022/05/19 11:34:48;;;;;;;;;;;;;;;23.00;58.46;98065.22;615137;230;65359;-70
2022/05/19 11:37:20;;;;;;;;;;;;;;;23.00;58.46;98051.81;615009;230;67359;-72
2022/05/19 11:39:54;;;;;;;;;;;;;;;23.00;58.40;98057.17;615076;230;66626;-73
2022/05/19 11:42:23;;;;;;;;;;;;;;;23.02;57.89;98055.02;615112;230;65160;-75
2022/05/19 11:44:51;;;;;;;;;;;;;;;23.01;59.01;98054.22;615056;230;66831;-73
2022/05/19 11:55:12;;;;;;;;;;;;;;;23.02;57.93;98055.82;615087;230;66892;-80
2022/05/19 11:55:40;;;;;;;;;;;;;;;23.02;56.59;98039.73;614845;230;67101;-76
2022/05/19 11:58:10;;;;;;;;;;;;;;;23.03;60.21;98040.57;615080;230;65347;-78
2022/05/19 12:00:40;;;;;;;;;;;;;;;23.02;58.13;98036.25;615068;230;67625;-74
2022/05/19 12:03:13;;;;;;;;;;;;;;;23.02;58.26;98036.25;612986;228;67004;-77
2022/05/19 12:05:43;;;;;;;;;;;;;;;23.02;57.17;98034.37;610562;232;63014;-73
2022/05/19 12:08:12;;;;;;;;;;;;;;;23.02;57.87;98034.37;610667;232;67067;-74
2022/05/19 12:10:44;;;;;;;;;;;;;;;23.04;56.45;98026.09;610394;232;66935;-74
2022/05/19 12:13:11;;;;;;;;;;;;;;;23.04;57.01;98023.41;610490;232;65172;-74
2022/05/19 12:15:40;;;;;;;;;;;;;;;23.04;57.08;98015.36;610618;232;64887;-74
2022/05/19 12:18:12;;;;;;;;;;;;;;;23.04;57.28;98007.32;610234;232;67846;-74
2022/05/19 12:20:45;;;;;;;;;;;;;;;23.05;58.31;98008.92;610578;230;47059;-75
2022/05/19 12:23:18;;;;;;;;;;;;;;;23.05;57.78;98016.97;610505;232;64609;-75
2022/05/19 12:25:47;;;;;;;;;;;;;;;23.05;57.58;98008.92;610598;232;67246;-75
2022/05/19 12:28:16;;;;;;;;;;;;;;;23.04;56.71;98018.84;610586;232;65047;-75
2022/05/19 12:33:41;;;;;;;;;;;;;;;23.04;58.29;98002.76;610640;232;66919;-76
2022/05/19 12:36:13;;;;;;;;;;;;;;;23.06;56.55;98009.75;610313;232;65135;-77
2022/05/19 12:38:43;;;;;;;;;;;;;;;23.05;56.11;98011.60;610551;232;64812;-74
2022/05/19 12:41:12;;;;;;;;;;;;;;;23.06;56.77;98007.88;610568;232;67356;-75
2022/05/19 12:43:44;;;;;;;;;;;;;;;23.07;57.28;98009.48;609931;231;65310;-74
2022/05/19 12:46:13;;;;;;;;;;;;;;;23.06;55.65;97991.78;610574;232;67197;-76
2022/05/19 12:48:45;;;;;;;;;;;;;;;23.07;56.55;97996.07;610669;232;67103;-75
2022/05/19 12:51:19;;;;;;;;;;;;;;;23.08;56.87;97988.83;610633;232;62950;-75
2022/05/19 12:53:54;;;;;;;;;;;;;;;23.08;56.09;97996.87;610300;232;67163;-73
2022/05/19 12:56:41;;;;;;;;;;;;;;;23.09;56.04;97998.50;610579;232;64460;-76
2022/05/19 12:59:11;;;;;;;;;;;;;;;23.08;56.54;97984.30;610654;232;63257;-77
2022/05/19 13:01:49;;;;;;;;;;;;;;;23.09;55.53;97980.54;610595;232;64692;-73
2022/05/19 13:04:36;;;;;;;;;;;;;;;23.11;55.64;97977.58;610301;230;64831;-74
2022/05/19 13:07:10;;;;;;;;;;;;;;;23.10;57.51;97966.05;610595;229;65288;-73
2022/05/19 13:09:38;;;;;;;;;;;;;;;23.10;57.17;97976.78;610574;232;67253;-76
2022/05/19 13:12:07;;;;;;;;;;;;;;;23.12;54.26;97966.61;610643;232;66783;-73
2022/05/19 13:14:40;;;;;;;;;;;;;;;23.15;55.51;97959.91;610570;232;63022;-72
2022/05/19 13:17:07;;;;;;;;;;;;;;;23.17;57.55;97965.83;610404;232;64873;-75
2022/05/19 13:19:36;;;;;;;;;;;;;;;23.17;57.25;97961.27;610404;232;65967;-74
2022/05/19 13:22:06;;;;;;;;;;;;;;;23.17;56.39;97963.95;610660;228;65788;-76
2022/05/19 13:24:35;;;;;;;;;;;;;;;23.18;57.57;97967.43;610627;232;65004;-76